Time,TemperatureF,DewpointF,PressureIn,WindDirection,WindDirectionDegrees,WindSpeedMPH,WindSpeedGustMPH,Humidity,HourlyPrecipIn,Conditions,Clouds,dailyrainin,SolarRadiationWatts/m^2,SoftwareType,DateUTC
2013-09-09 00:01:00,61.1,56.6,29.92,South,186,0.0,0.0,85,0.01,,FEW,0.02,0.00,VWS V14.01,2013-09-09 05:01:00,
2013-09-09 00:06:00,61.0,56.5,29.92,South,190,0.0,2.0,85,0.01,,FEW,0.00,0.00,VWS V14.01,2013-09-09 05:06:00,
2013-09-09 00:11:00,60.9,56.4,29.93,SSW,194,0.0,1.0,85,0.01,,FEW,0.00,0.00,VWS V14.01,2013-09-09 05:11:00,
2013-09-09 00:16:00,60.8,56.3,29.93,SSW,194,0.0,1.0,85,0.01,,FEW,0.00,0.00,VWS V14.01,2013-09-09 05:16:00,
2013-09-09 00:21:00,60.6,56.1,29.92,South,182,0.0,0.0,85,0.01,,FEW,0.00,0.00,VWS V14.01,2013-09-09 05:21:00,
2013-09-09 00:26:00,60.5,56.0,29.92,South,171,0.0,3.0,85,0.01,,FEW,0.00,0.00,VWS V14.01,2013-09-09 05:26:00,
2013-09-09 00:31:00,60.4,56.2,29.92,SSE,167,0.0,1.0,86,0.01,,FEW,0.00,0.00,VWS V14.01,2013-09-09 05:31:00,
2013-09-09 00:36:00,60.4,56.2,29.92,ESE,121,0.0,3.0,86,0.01,,FEW,0.00,0.00,VWS V14.01,2013-09-09 05:36:00,
2013-09-09 00:41:00,60.3,56.1,29.92,SE,142,0.0,3.0,86,0.01,,FEW,0.00,0.00,VWS V14.01,2013-09-09 05:41:00,
2013-09-09 00:46:00,60.2,56.3,29.92,South,181,0.0,3.0,87,0.00,,FEW,0.00,0.00,VWS V14.01,2013-09-09 05:46:00,
2013-09-09 00:51:00,60.2,56.3,29.92,SSE,163,0.0,3.0,87,0.00,,FEW,0.00,0.00,VWS V14.01,2013-09-09 05:51:00,
2013-09-09 00:56:00,60.2,56.3,29.91,SSE,158,4.0,6.0,87,0.00,,FEW,0.00,0.00,VWS V14.01,2013-09-09 05:56:00,
2013-09-09 01:01:00,60.2,56.6,29.91,ESE,123,2.0,4.0,88,0.00,,FEW,0.00,0.00,VWS V14.01,2013-09-09 06:01:00,
2013-09-09 01:06:00,60.1,56.5,29.91,SSE,164,3.0,7.0,88,0.00,,FEW,0.00,0.00,VWS V14.01,2013-09-09 06:06:00,
2013-09-09 01:11:00,60.1,56.5,29.90,SSE,155,1.0,6.0,88,0.00,,FEW,0.00,0.00,VWS V14.01,2013-09-09 06:11:00,
2013-09-09 01:16:00,60.0,56.4,29.90,SSW,198,2.0,5.0,88,0.00,,FEW,0.00,0.00,VWS V14.01,2013-09-09 06:16:00,
2013-09-09 01:21:00,60.1,56.5,29.90,SSE,162,0.0,5.0,88,0.00,,FEW,0.00,0.00,VWS V14.01,2013-09-09 06:21:00,
2013-09-09 01:26:00,60.1,56.5,29.90,South,175,0.0,8.0,88,0.00,,FEW,0.00,0.00,VWS V14.01,2013-09-09 06:26:00,
2013-09-09 01:31:00,60.0,56.4,29.90,South,173,0.0,0.0,88,0.00,,FEW,0.00,0.00,VWS V14.01,2013-09-09 06:31:00,
2013-09-09 01:36:00,60.0,56.4,29.90,South,175,0.0,3.0,88,0.00,,FEW,0.00,0.00,VWS V14.01,2013-09-09 06:36:00,
2013-09-09 01:41:00,60.0,56.4,29.90,ESE,112,0.0,0.0,88,0.00,,FEW,0.00,0.00,VWS V14.01,2013-09-09 06:41:00,
2013-09-09 01:46:00,60.0,56.4,29.90,South,173,0.0,1.0,88,0.00,,FEW,0.00,0.00,VWS V14.01,2013-09-09 06:46:00,
2013-09-09 01:51:00,60.0,56.4,29.90,SSW,202,0.0,2.0,88,0.00,,FEW,0.00,0.00,VWS V14.01,2013-09-09 06:51:00,
2013-09-09 01:56:00,60.1,56.5,29.90,South,175,2.0,2.0,88,0.00,,FEW,0.00,0.00,VWS V14.01,2013-09-09 06:56:00,
2013-09-09 02:02:00,60.1,56.5,29.90,SW,230,0.0,1.0,88,0.00,,FEW,0.00,0.00,VWS V14.01,2013-09-09 07:02:00,
2013-09-09 02:07:00,60.1,56.8,29.90,SSE,160,0.0,1.0,89,0.00,,FEW,0.00,0.00,VWS V14.01,2013-09-09 07:07:00,
2013-09-09 02:12:00,60.1,56.5,29.89,SSE,167,1.0,4.0,88,0.00,,FEW,0.00,0.00,VWS V14.01,2013-09-09 07:12:00,
2013-09-09 02:17:00,60.1,56.5,29.89,South,186,1.0,2.0,88,0.00,,FEW,0.00,0.00,VWS V14.01,2013-09-09 07:17:00,
2013-09-09 02:22:00,60.1,56.5,29.90,South,177,1.0,2.0,88,0.00,,FEW,0.00,0.00,VWS V14.01,2013-09-09 07:22:00,
2013-09-09 02:27:00,60.1,56.5,29.89,SSW,209,0.0,1.0,88,0.00,,FEW,0.00,0.00,VWS V14.01,2013-09-09 07:27:00,
2013-09-09 02:32:00,60.1,56.5,29.89,SSW,203,0.0,0.0,88,0.00,,FEW,0.00,0.00,VWS V14.01,2013-09-09 07:32:00,
2013-09-09 02:37:00,60.2,57.0,29.89,SSW,198,0.0,0.0,89,0.00,,FEW,0.00,0.00,VWS V14.01,2013-09-09 07:37:00,
2013-09-09 02:42:00,60.2,57.0,29.89,SSW,193,0.0,1.0,89,0.00,,FEW,0.00,0.00,VWS V14.01,2013-09-09 07:42:00,
2013-09-09 02:47:00,60.2,57.0,29.89,South,183,3.0,4.0,89,0.00,,FEW,0.00,0.00,VWS V14.01,2013-09-09 07:47:00,
2013-09-09 02:52:00,60.3,57.0,29.89,South,183,0.0,0.0,89,0.00,,FEW,0.00,0.00,VWS V14.01,2013-09-09 07:52:00,
2013-09-09 02:57:00,60.2,56.6,29.89,South,174,2.0,2.0,88,0.00,,FEW,0.00,0.00,VWS V14.01,2013-09-09 07:57:00,
2013-09-09 03:02:00,60.2,56.6,29.89,SSE,167,0.0,3.0,88,0.00,,FEW,0.00,0.00,VWS V14.01,2013-09-09 08:02:00,
2013-09-09 03:07:00,60.2,56.6,29.89,South,173,1.0,3.0,88,0.00,,FEW,0.00,0.00,VWS V14.01,2013-09-09 08:07:00,
2013-09-09 03:12:00,60.2,56.6,29.89,SSE,152,1.0,3.0,88,0.00,,FEW,0.00,0.00,VWS V14.01,2013-09-09 08:12:00,
2013-09-09 03:17:00,60.2,56.6,29.89,SSE,151,0.0,0.0,88,0.00,,FEW,0.00,0.00,VWS V14.01,2013-09-09 08:17:00,
2013-09-09 03:22:00,60.2,56.6,29.89,SSE,153,1.0,1.0,88,0.00,,FEW,0.00,0.00,VWS V14.01,2013-09-09 08:22:00,
2013-09-09 03:27:00,60.1,56.5,29.88,South,177,1.0,4.0,88,0.00,,FEW,0.00,0.00,VWS V14.01,2013-09-09 08:27:00,
2013-09-09 03:32:00,60.1,56.5,29.88,South,182,0.0,3.0,88,0.00,,FEW,0.00,0.00,VWS V14.01,2013-09-09 08:32:00,
2013-09-09 03:37:00,60.2,57.0,29.87,South,180,1.0,4.0,89,0.00,,FEW,0.00,0.00,VWS V14.01,2013-09-09 08:37:00,
2013-09-09 03:42:00,60.2,57.0,29.87,South,180,0.0,0.0,89,0.00,,FEW,0.00,0.00,VWS V14.01,2013-09-09 08:42:00,
2013-09-09 03:47:00,60.2,57.0,29.87,ESE,115,2.0,4.0,89,0.00,,FEW,0.00,0.00,VWS V14.01,2013-09-09 08:47:00,
2013-09-09 03:52:00,60.2,57.0,29.88,ESE,115,0.0,2.0,89,0.00,,FEW,0.00,0.00,VWS V14.01,2013-09-09 08:52:00,
2013-09-09 03:57:00,60.2,57.0,29.87,South,174,1.0,1.0,89,0.00,,FEW,0.00,0.00,VWS V14.01,2013-09-09 08:57:00,
2013-09-09 04:02:00,60.2,57.0,29.87,SSE,168,4.0,4.0,89,0.00,,FEW,0.00,0.00,VWS V14.01,2013-09-09 09:02:00,
2013-09-09 04:07:00,60.2,57.0,29.87,South,182,0.0,0.0,89,0.00,,FEW,0.00,0.00,VWS V14.01,2013-09-09 09:07:00,
2013-09-09 04:12:00,60.2,57.0,29.87,SSW,199,0.0,3.0,89,0.00,,FEW,0.00,0.00,VWS V14.01,2013-09-09 09:12:00,
2013-09-09 04:17:00,60.2,57.3,29.86,SSE,150,0.0,4.0,90,0.00,,FEW,0.00,0.00,VWS V14.01,2013-09-09 09:17:00,
2013-09-09 04:22:00,60.3,57.4,29.86,SSE,166,1.0,3.0,90,0.00,,FEW,0.00,0.00,VWS V14.01,2013-09-09 09:22:00,
2013-09-09 04:28:00,60.3,57.4,29.86,South,185,0.0,3.0,90,0.00,,FEW,0.00,0.00,VWS V14.01,2013-09-09 09:28:00,
2013-09-09 04:33:00,60.3,57.4,29.86,South,179,0.0,0.0,90,0.00,,FEW,0.00,0.00,VWS V14.01,2013-09-09 09:33:00,
2013-09-09 04:38:00,60.2,57.3,29.86,SE,138,0.0,1.0,90,0.00,,FEW,0.00,0.00,VWS V14.01,2013-09-09 09:38:00,
2013-09-09 04:43:00,60.2,57.3,29.85,SSW,211,0.0,0.0,90,0.00,,FEW,0.00,0.00,VWS V14.01,2013-09-09 09:43:00,
2013-09-09 04:48:00,60.3,57.4,29.85,South,169,0.0,3.0,90,0.00,,FEW,0.00,0.00,VWS V14.01,2013-09-09 09:48:00,
2013-09-09 04:53:00,60.3,57.4,29.85,South,169,0.0,0.0,90,0.00,,FEW,0.00,0.00,VWS V14.01,2013-09-09 09:53:00,
2013-09-09 04:58:00,60.4,57.8,29.85,South,188,0.0,4.0,91,0.00,,FEW,0.00,0.00,VWS V14.01,2013-09-09 09:58:00,
2013-09-09 05:03:00,60.4,57.8,29.85,SE,142,0.0,4.0,91,0.00,,FEW,0.00,0.00,VWS V14.01,2013-09-09 10:03:00,
2013-09-09 05:08:00,60.4,57.8,29.85,South,171,0.0,3.0,91,0.00,,FEW,0.00,0.00,VWS V14.01,2013-09-09 10:08:00,
2013-09-09 05:13:00,60.5,57.9,29.85,SW,226,0.0,4.0,91,0.00,,FEW,0.00,0.00,VWS V14.01,2013-09-09 10:13:00,
2013-09-09 05:18:00,60.6,58.0,29.85,SSW,213,0.0,0.0,91,0.00,,FEW,0.00,0.00,VWS V14.01,2013-09-09 10:18:00,
2013-09-09 05:23:00,60.6,58.0,29.85,South,186,0.0,4.0,91,0.00,,FEW,0.00,0.00,VWS V14.01,2013-09-09 10:23:00,
2013-09-09 05:28:00,60.6,58.0,29.85,South,171,1.0,3.0,91,0.00,,FEW,0.00,0.00,VWS V14.01,2013-09-09 10:28:00,
2013-09-09 05:33:00,60.6,58.0,29.84,SSE,161,0.0,5.0,91,0.00,,FEW,0.00,0.00,VWS V14.01,2013-09-09 10:33:00,
2013-09-09 05:38:00,60.6,58.0,29.84,SSE,157,0.0,0.0,91,0.00,,FEW,0.00,0.00,VWS V14.01,2013-09-09 10:38:00,
2013-09-09 05:43:00,60.7,58.1,29.84,South,170,0.0,0.0,91,0.00,,FEW,0.00,0.00,VWS V14.01,2013-09-09 10:43:00,
2013-09-09 05:48:00,60.8,58.2,29.84,SSE,162,2.0,5.0,91,0.00,,FEW,0.00,0.00,VWS V14.01,2013-09-09 10:48:00,
2013-09-09 05:53:00,60.8,58.2,29.84,SE,138,0.0,6.0,91,0.00,,FEW,0.00,0.00,VWS V14.01,2013-09-09 10:53:00,
2013-09-09 05:58:00,60.7,58.1,29.83,SSE,159,2.0,9.0,91,0.00,,FEW,0.00,0.00,VWS V14.01,2013-09-09 10:58:00,
2013-09-09 06:03:00,60.8,58.2,29.83,South,190,3.0,3.0,91,0.00,,FEW,0.00,0.00,VWS V14.01,2013-09-09 11:03:00,
2013-09-09 06:08:00,60.8,58.2,29.83,South,188,0.0,3.0,91,0.00,,FEW,0.00,0.00,VWS V14.01,2013-09-09 11:08:00,
2013-09-09 06:13:00,60.9,58.6,29.83,SSE,163,0.0,5.0,92,0.00,,FEW,0.00,0.00,VWS V14.01,2013-09-09 11:13:00,
2013-09-09 06:18:00,60.9,58.6,29.83,South,175,0.0,5.0,92,0.00,,FEW,0.00,0.00,VWS V14.01,2013-09-09 11:18:00,
2013-09-09 06:23:00,61.0,58.7,29.83,South,190,1.0,4.0,92,0.00,,FEW,0.00,0.00,VWS V14.01,2013-09-09 11:23:00,
2013-09-09 06:29:00,61.1,58.8,29.83,South,191,0.0,4.0,92,0.00,,FEW,0.00,0.00,VWS V14.01,2013-09-09 11:29:00,
2013-09-09 06:34:00,61.1,58.8,29.83,South,188,2.0,3.0,92,0.00,,FEW,0.00,0.00,VWS V14.01,2013-09-09 11:34:00,
2013-09-09 06:39:00,61.2,58.9,29.82,SSE,150,3.0,4.0,92,0.00,,FEW,0.00,0.00,VWS V14.01,2013-09-09 11:39:00,
2013-09-09 06:44:00,61.2,58.9,29.83,SSE,159,0.0,3.0,92,0.00,,FEW,0.00,5.00,VWS V14.01,2013-09-09 11:44:00,
2013-09-09 06:49:00,61.3,59.0,29.83,SSW,203,0.0,7.0,92,0.00,,FEW,0.00,9.00,VWS V14.01,2013-09-09 11:49:00,
2013-09-09 06:54:00,61.4,59.1,29.83,South,188,1.0,3.0,92,0.00,,FEW,0.00,9.00,VWS V14.01,2013-09-09 11:54:00,
2013-09-09 06:59:00,61.5,59.2,29.83,South,190,0.0,5.0,92,0.00,,FEW,0.00,16.00,VWS V14.01,2013-09-09 11:59:00,
2013-09-09 07:04:00,61.6,59.3,29.83,South,180,0.0,4.0,92,0.00,,FEW,0.00,18.00,VWS V14.01,2013-09-09 12:04:00,
2013-09-09 07:09:00,61.7,59.4,29.83,SSW,204,0.0,7.0,92,0.00,,FEW,0.00,23.00,VWS V14.01,2013-09-09 12:09:00,
2013-09-09 07:14:00,61.8,59.5,29.83,SSW,200,1.0,1.0,92,0.00,,FEW,0.00,19.00,VWS V14.01,2013-09-09 12:14:00,
2013-09-09 07:19:00,61.8,59.5,29.84,SSW,202,2.0,4.0,92,0.00,,FEW,0.00,16.00,VWS V14.01,2013-09-09 12:19:00,
2013-09-09 07:24:00,62.0,59.7,29.84,SSW,202,0.0,4.0,92,0.00,,FEW,0.00,14.00,VWS V14.01,2013-09-09 12:24:00,
2013-09-09 07:29:00,62.1,59.8,29.84,SSW,202,2.0,4.0,92,0.00,,FEW,0.00,18.00,VWS V14.01,2013-09-09 12:29:00,
2013-09-09 07:34:00,62.2,60.2,29.85,SSW,206,3.0,5.0,93,0.00,,FEW,0.00,25.00,VWS V14.01,2013-09-09 12:34:00,
2013-09-09 07:39:00,62.3,60.0,29.84,SSE,163,0.0,4.0,92,0.00,,FEW,0.00,12.00,VWS V14.01,2013-09-09 12:39:00,
2013-09-09 07:44:00,62.3,60.0,29.84,SSE,165,0.0,3.0,92,0.06,,FEW,0.06,11.00,VWS V14.01,2013-09-09 12:44:00,
2013-09-09 07:49:00,62.3,60.0,29.85,SSW,194,0.0,4.0,92,0.07,,FEW,0.07,9.00,VWS V14.01,2013-09-09 12:49:00,
2013-09-09 07:54:00,62.3,60.2,29.85,SSW,194,0.0,3.0,93,0.07,,FEW,0.07,7.00,VWS V14.01,2013-09-09 12:54:00,
2013-09-09 07:59:00,62.5,60.5,29.86,SSW,205,2.0,6.0,93,0.07,,FEW,0.07,7.00,VWS V14.01,2013-09-09 12:59:00,
2013-09-09 08:04:00,62.7,60.7,29.87,WSW,238,4.0,6.0,93,0.08,,FEW,0.08,5.00,VWS V14.01,2013-09-09 13:04:00,
2013-09-09 08:10:00,62.7,60.7,29.86,SW,235,2.0,4.0,93,0.09,,FEW,0.09,9.00,VWS V14.01,2013-09-09 13:10:00,
2013-09-09 08:15:00,62.6,60.5,29.87,SW,221,3.0,6.0,93,0.10,,FEW,0.10,5.00,VWS V14.01,2013-09-09 13:15:00,
2013-09-09 08:20:00,62.6,60.5,29.87,SW,220,0.0,5.0,93,0.10,,FEW,0.10,5.00,VWS V14.01,2013-09-09 13:20:00,
2013-09-09 08:25:00,62.5,60.5,29.88,SW,215,0.0,3.0,93,0.11,,FEW,0.11,0.00,VWS V14.01,2013-09-09 13:25:00,
2013-09-09 08:30:00,62.5,60.5,29.87,SW,215,0.0,0.0,93,0.13,,FEW,0.13,0.00,VWS V14.01,2013-09-09 13:30:00,
2013-09-09 08:35:00,62.4,60.3,29.86,SW,215,0.0,0.0,93,0.13,,FEW,0.13,5.00,VWS V14.01,2013-09-09 13:35:00,
2013-09-09 08:40:00,62.4,60.3,29.86,SW,215,0.0,3.0,93,0.14,,FEW,0.14,0.00,VWS V14.01,2013-09-09 13:40:00,
2013-09-09 08:45:00,62.4,60.3,29.83,SSW,208,0.0,1.0,93,0.12,,FEW,0.15,12.00,VWS V14.01,2013-09-09 13:45:00,
2013-09-09 08:50:00,62.3,60.2,29.83,SSE,160,3.0,4.0,93,0.09,,FEW,0.15,18.00,VWS V14.01,2013-09-09 13:50:00,
2013-09-09 08:55:00,62.3,60.2,29.83,ESE,117,0.0,1.0,93,0.08,,FEW,0.15,19.00,VWS V14.01,2013-09-09 13:55:00,
2013-09-09 09:00:00,62.3,60.2,29.83,SSE,160,0.0,6.0,93,0.08,,FEW,0.15,28.00,VWS V14.01,2013-09-09 14:00:00,
2013-09-09 09:05:00,62.3,60.2,29.82,SE,140,0.0,4.0,93,0.07,,FEW,0.15,39.00,VWS V14.01,2013-09-09 14:05:00,
2013-09-09 09:10:00,62.3,60.2,29.82,SSW,196,0.0,7.0,93,0.07,,FEW,0.15,42.00,VWS V14.01,2013-09-09 14:10:00,
2013-09-09 09:15:00,62.3,60.2,29.83,SSW,197,0.0,7.0,93,0.06,,FEW,0.15,51.00,VWS V14.01,2013-09-09 14:15:00,
2013-09-09 09:20:00,62.4,60.3,29.83,SSE,148,0.0,3.0,93,0.05,,FEW,0.15,69.00,VWS V14.01,2013-09-09 14:20:00,
2013-09-09 09:25:00,62.5,60.5,29.83,SSW,192,0.0,2.0,93,0.05,,FEW,0.15,77.00,VWS V14.01,2013-09-09 14:25:00,
2013-09-09 09:30:00,62.7,61.0,29.83,SSE,157,0.0,4.0,94,0.04,,FEW,0.15,63.00,VWS V14.01,2013-09-09 14:30:00,
2013-09-09 09:35:00,62.8,61.0,29.81,SSW,194,1.0,4.0,94,0.02,,FEW,0.15,60.00,VWS V14.01,2013-09-09 14:35:00,
2013-09-09 09:40:00,62.9,61.2,29.81,SSE,149,2.0,7.0,94,0.01,,FEW,0.15,47.00,VWS V14.01,2013-09-09 14:40:00,
2013-09-09 09:45:00,62.9,60.8,29.80,SSE,157,2.0,7.0,93,0.01,,OVC,0.15,37.00,VWS V14.01,2013-09-09 14:45:00,
2013-09-09 09:50:00,62.9,61.2,29.79,ESE,117,3.0,9.0,94,0.00,,OVC,0.15,25.00,VWS V14.01,2013-09-09 14:50:00,
2013-09-09 09:55:00,62.9,61.2,29.77,ESE,117,0.0,7.0,94,0.00,,OVC,0.15,26.00,VWS V14.01,2013-09-09 14:55:00,
2013-09-09 10:01:00,62.9,61.2,29.72,East,85,5.0,9.0,94,0.01,,OVC,0.16,25.00,VWS V14.01,2013-09-09 15:01:00,
2013-09-09 10:06:00,62.9,61.2,29.71,SSW,209,5.0,12.0,94,0.01,,OVC,0.16,26.00,VWS V14.01,2013-09-09 15:06:00,
2013-09-09 10:11:00,63.1,61.3,29.77,South,172,0.0,7.0,94,0.01,,OVC,0.16,44.00,VWS V14.01,2013-09-09 15:11:00,
2013-09-09 10:16:00,63.2,61.5,29.77,South,172,0.0,1.0,94,0.01,,OVC,0.16,49.00,VWS V14.01,2013-09-09 15:16:00,
2013-09-09 10:21:00,63.2,61.5,29.77,South,172,0.0,0.0,94,0.01,,OVC,0.16,63.00,VWS V14.01,2013-09-09 15:21:00,
2013-09-09 10:26:00,63.3,61.5,29.76,ESE,107,0.0,4.0,94,0.01,,OVC,0.16,83.00,VWS V14.01,2013-09-09 15:26:00,
2013-09-09 10:31:00,63.4,61.7,29.77,ESE,108,2.0,3.0,94,0.01,,OVC,0.16,88.00,VWS V14.01,2013-09-09 15:31:00,
2013-09-09 10:36:00,63.6,61.8,29.76,SE,134,0.0,4.0,94,0.01,,OVC,0.16,109.00,VWS V14.01,2013-09-09 15:36:00,
2013-09-09 10:41:00,63.9,62.1,29.76,ESE,117,0.0,4.0,94,0.01,,OVC,0.16,107.00,VWS V14.01,2013-09-09 15:41:00,
2013-09-09 10:46:00,64.1,62.3,29.76,ESE,119,1.0,3.0,94,0.01,,OVC,0.16,86.00,VWS V14.01,2013-09-09 15:46:00,
2013-09-09 10:51:00,64.2,62.4,29.77,ESE,117,0.0,0.0,94,0.01,,OVC,0.16,63.00,VWS V14.01,2013-09-09 15:51:00,
2013-09-09 10:56:00,64.2,62.4,29.77,ESE,106,0.0,2.0,94,0.01,,OVC,0.16,58.00,VWS V14.01,2013-09-09 15:56:00,
2013-09-09 11:01:00,64.3,62.5,29.76,ESE,106,0.0,0.0,94,0.01,,OVC,0.16,72.00,VWS V14.01,2013-09-09 16:01:00,
2013-09-09 11:06:00,64.3,62.5,29.76,ESE,105,0.0,2.0,94,0.00,,OVC,0.16,63.00,VWS V14.01,2013-09-09 16:06:00,
2013-09-09 11:11:00,64.2,62.4,29.76,ESE,103,0.0,4.0,94,0.00,,OVC,0.16,60.00,VWS V14.01,2013-09-09 16:11:00,
2013-09-09 11:16:00,64.4,62.6,29.76,ESE,105,0.0,2.0,94,0.00,,OVC,0.16,72.00,VWS V14.01,2013-09-09 16:16:00,
2013-09-09 11:21:00,64.7,62.9,29.75,SE,144,3.0,5.0,94,0.00,,OVC,0.16,97.00,VWS V14.01,2013-09-09 16:21:00,
2013-09-09 11:26:00,64.6,62.8,29.75,SSE,147,0.0,0.0,94,0.00,,OVC,0.16,107.00,VWS V14.01,2013-09-09 16:26:00,
2013-09-09 11:31:00,64.7,62.9,29.75,South,181,2.0,4.0,94,0.00,,OVC,0.16,109.00,VWS V14.01,2013-09-09 16:31:00,
2013-09-09 11:36:00,64.7,63.2,29.75,South,184,0.0,0.0,95,0.00,,OVC,0.16,67.00,VWS V14.01,2013-09-09 16:36:00,
2013-09-09 11:41:00,64.8,63.3,29.75,SSW,199,0.0,1.0,95,0.00,,OVC,0.16,70.00,VWS V14.01,2013-09-09 16:41:00,
2013-09-09 11:46:00,64.8,63.3,29.75,South,178,5.0,5.0,95,0.00,,OVC,0.16,83.00,VWS V14.01,2013-09-09 16:46:00,
2013-09-09 11:52:00,64.8,63.3,29.74,ESE,123,1.0,2.0,95,0.00,,OVC,0.16,95.00,VWS V14.01,2013-09-09 16:52:00,
2013-09-09 11:57:00,65.1,63.6,29.74,SSW,200,0.0,0.0,95,0.00,,OVC,0.16,98.00,VWS V14.01,2013-09-09 16:57:00,
2013-09-09 12:02:00,65.1,63.6,29.74,South,175,1.0,2.0,95,0.00,,OVC,0.16,111.00,VWS V14.01,2013-09-09 17:02:00,
2013-09-09 12:07:00,65.2,63.7,29.74,South,181,1.0,1.0,95,0.00,,OVC,0.16,111.00,VWS V14.01,2013-09-09 17:07:00,
2013-09-09 12:12:00,65.4,63.9,29.73,SW,232,4.0,7.0,95,0.00,,OVC,0.16,113.00,VWS V14.01,2013-09-09 17:12:00,
2013-09-09 12:17:00,65.5,64.0,29.73,WSW,241,2.0,4.0,95,0.00,,OVC,0.16,125.00,VWS V14.01,2013-09-09 17:17:00,
2013-09-09 12:22:00,65.6,64.1,29.72,SSW,199,2.0,4.0,95,0.00,,OVC,0.16,107.00,VWS V14.01,2013-09-09 17:22:00,
2013-09-09 12:27:00,65.6,64.1,29.73,ESE,115,4.0,5.0,95,0.00,,OVC,0.16,105.00,VWS V14.01,2013-09-09 17:27:00,
2013-09-09 12:32:00,65.6,64.1,29.73,SW,223,0.0,9.0,95,0.00,,OVC,0.16,107.00,VWS V14.01,2013-09-09 17:32:00,
2013-09-09 12:37:00,65.7,64.2,29.72,SSE,151,3.0,6.0,95,0.00,,OVC,0.16,132.00,VWS V14.01,2013-09-09 17:37:00,
2013-09-09 12:42:00,65.8,64.3,29.72,South,185,1.0,5.0,95,0.00,,OVC,0.16,128.00,VWS V14.01,2013-09-09 17:42:00,
2013-09-09 12:47:00,66.1,64.6,29.72,SSW,194,0.0,4.0,95,0.00,,OVC,0.16,137.00,VWS V14.01,2013-09-09 17:47:00,
2013-09-09 12:52:00,66.2,64.7,29.72,SSE,158,0.0,2.0,95,0.00,,OVC,0.16,149.00,VWS V14.01,2013-09-09 17:52:00,
2013-09-09 12:57:00,66.4,64.9,29.71,SSW,208,0.0,6.0,95,0.00,,OVC,0.16,156.00,VWS V14.01,2013-09-09 17:57:00,
2013-09-09 13:02:00,66.6,65.1,29.70,SSW,193,3.0,6.0,95,0.00,,OVC,0.16,162.00,VWS V14.01,2013-09-09 18:02:00,
2013-09-09 13:07:00,66.8,65.3,29.70,ESE,108,1.0,1.0,95,0.00,,OVC,0.16,165.00,VWS V14.01,2013-09-09 18:07:00,
2013-09-09 13:12:00,67.0,65.5,29.70,SE,142,4.0,10.0,95,0.00,,OVC,0.16,216.00,VWS V14.01,2013-09-09 18:12:00,
2013-09-09 13:17:00,67.4,65.9,29.70,SE,136,6.0,6.0,95,0.00,,OVC,0.16,204.00,VWS V14.01,2013-09-09 18:17:00,
2013-09-09 13:22:00,67.6,66.1,29.69,SSW,210,0.0,2.0,95,0.00,,OVC,0.16,251.00,VWS V14.01,2013-09-09 18:22:00,
2013-09-09 13:27:00,67.9,66.4,29.69,ESE,115,3.0,8.0,95,0.00,,OVC,0.16,218.00,VWS V14.01,2013-09-09 18:27:00,
2013-09-09 13:32:00,68.2,66.7,29.69,SE,136,2.0,4.0,95,0.00,,OVC,0.16,350.00,VWS V14.01,2013-09-09 18:32:00,
2013-09-09 13:37:00,68.7,66.9,29.69,SSW,202,5.0,6.0,94,0.00,,OVC,0.16,320.00,VWS V14.01,2013-09-09 18:37:00,
2013-09-09 13:42:00,69.1,67.3,29.69,South,173,3.0,3.0,94,0.00,,OVC,0.16,411.00,VWS V14.01,2013-09-09 18:42:00,
2013-09-09 13:48:00,69.8,68.0,29.68,SSE,159,2.0,7.0,94,0.00,,OVC,0.16,369.00,VWS V14.01,2013-09-09 18:48:00,
2013-09-09 13:53:00,70.3,68.2,29.68,SE,129,1.0,3.0,93,0.00,,OVC,0.16,619.00,VWS V14.01,2013-09-09 18:53:00,
2013-09-09 13:58:00,71.2,69.1,29.68,SSE,163,6.0,8.0,93,0.00,,OVC,0.16,316.00,VWS V14.01,2013-09-09 18:58:00,
2013-09-09 14:03:00,71.3,68.9,29.68,East,98,8.0,9.0,92,0.00,,OVC,0.16,302.00,VWS V14.01,2013-09-09 19:03:00,
2013-09-09 14:08:00,71.4,68.6,29.68,ESE,115,0.0,7.0,91,0.00,,OVC,0.16,229.00,VWS V14.01,2013-09-09 19:08:00,
2013-09-09 14:13:00,71.6,68.8,29.68,SSE,154,1.0,3.0,91,0.00,,OVC,0.16,297.00,VWS V14.01,2013-09-09 19:13:00,
2013-09-09 14:18:00,71.5,69.1,29.68,SE,128,0.0,1.0,92,0.00,,OVC,0.16,320.00,VWS V14.01,2013-09-09 19:18:00,
2013-09-09 14:23:00,71.7,69.3,29.67,SSE,153,0.0,3.0,92,0.00,,OVC,0.16,445.00,VWS V14.01,2013-09-09 19:23:00,
2013-09-09 14:28:00,72.4,69.9,29.67,ESE,121,0.0,3.0,92,0.00,,OVC,0.16,541.00,VWS V14.01,2013-09-09 19:28:00,
2013-09-09 14:33:00,73.2,70.1,29.67,SSE,164,0.0,0.0,90,0.00,,OVC,0.16,438.00,VWS V14.01,2013-09-09 19:33:00,
2013-09-09 14:38:00,74.4,71.3,29.67,SSE,159,0.0,4.0,90,0.00,,OVC,0.16,661.00,VWS V14.01,2013-09-09 19:38:00,
2013-09-09 14:43:00,74.4,70.6,29.67,SSE,157,0.0,5.0,88,0.00,,OVC,0.16,272.00,VWS V14.01,2013-09-09 19:43:00,
2013-09-09 14:48:00,75.5,72.0,29.66,SSE,158,0.0,0.0,89,0.00,,OVC,0.16,478.00,VWS V14.01,2013-09-09 19:48:00,
2013-09-09 14:53:00,75.8,72.0,29.66,WSW,250,0.0,1.0,88,0.01,,OVC,0.17,526.00,VWS V14.01,2013-09-09 19:53:00,
2013-09-09 14:58:00,76.4,72.2,29.66,SSE,150,2.0,6.0,87,0.01,,OVC,0.17,,VWS V14.01,2013-09-09 19:58:00,
2013-09-09 15:03:00,76.4,71.6,29.66,SSE,147,0.0,0.0,85,0.01,,OVC,0.17,376.00,VWS V14.01,2013-09-09 20:03:00,
2013-09-09 15:08:00,76.3,71.5,29.66,SW,233,3.0,3.0,85,0.01,,OVC,0.17,236.00,VWS V14.01,2013-09-09 20:08:00,
2013-09-09 15:13:00,76.2,71.0,29.66,WSW,246,3.0,5.0,84,0.01,,OVC,0.17,236.00,VWS V14.01,2013-09-09 20:13:00,
2013-09-09 15:18:00,76.2,71.0,29.65,SSW,202,3.0,3.0,84,0.01,,OVC,0.17,209.00,VWS V14.01,2013-09-09 20:18:00,
2013-09-09 15:23:00,76.2,71.4,29.65,South,176,2.0,5.0,85,0.01,,OVC,0.17,322.00,VWS V14.01,2013-09-09 20:23:00,
2013-09-09 15:28:00,76.4,71.6,29.65,SSE,158,0.0,4.0,85,0.01,,OVC,0.17,206.00,VWS V14.01,2013-09-09 20:28:00,
2013-09-09 15:33:00,76.6,71.4,29.65,SW,227,0.0,6.0,84,0.01,,OVC,0.17,285.00,VWS V14.01,2013-09-09 20:33:00,
2013-09-09 15:38:00,76.8,71.6,29.64,SW,221,3.0,7.0,84,0.01,,OVC,0.17,236.00,VWS V14.01,2013-09-09 20:38:00,
2013-09-09 15:43:00,76.8,71.6,29.64,SSW,207,3.0,5.0,84,0.01,,OVC,0.17,301.00,VWS V14.01,2013-09-09 20:43:00,
2013-09-09 15:48:00,76.8,71.6,29.64,West,265,0.0,3.0,84,0.01,,OVC,0.17,234.00,VWS V14.01,2013-09-09 20:48:00,
2013-09-09 15:53:00,76.9,72.1,29.64,SW,216,1.0,3.0,85,0.00,,OVC,0.17,271.00,VWS V14.01,2013-09-09 20:53:00,
2013-09-09 15:58:00,77.1,71.9,29.64,WSW,240,9.0,9.0,84,0.00,,OVC,0.17,220.00,VWS V14.01,2013-09-09 20:58:00,
2013-09-09 16:03:00,77.0,71.4,29.64,WSW,254,4.0,6.0,83,0.00,,OVC,0.17,167.00,VWS V14.01,2013-09-09 21:03:00,
2013-09-09 16:08:00,76.9,71.3,29.64,SW,235,7.0,9.0,83,0.00,,OVC,0.17,156.00,VWS V14.01,2013-09-09 21:08:00,
2013-09-09 16:13:00,76.9,71.3,29.64,SW,217,3.0,7.0,83,0.00,,OVC,0.17,142.00,VWS V14.01,2013-09-09 21:13:00,
2013-09-09 16:18:00,76.7,71.5,29.64,SW,222,0.0,0.0,84,0.00,,OVC,0.17,113.00,VWS V14.01,2013-09-09 21:18:00,
2013-09-09 16:23:00,76.5,71.3,29.64,WSW,238,6.0,10.0,84,0.00,,OVC,0.17,134.00,VWS V14.01,2013-09-09 21:23:00,
2013-09-09 16:28:00,76.6,71.1,29.64,WSW,245,2.0,5.0,83,0.00,,OVC,0.17,160.00,VWS V14.01,2013-09-09 21:28:00,
2013-09-09 16:34:00,76.7,71.2,29.64,WSW,244,0.0,2.0,83,0.00,,OVC,0.17,178.00,VWS V14.01,2013-09-09 21:34:00,
2013-09-09 16:39:00,76.6,71.1,29.64,West,259,5.0,5.0,83,0.00,,OVC,0.17,186.00,VWS V14.01,2013-09-09 21:39:00,
2013-09-09 16:44:00,76.7,71.2,29.63,SW,232,3.0,6.0,83,0.00,,OVC,0.17,497.00,VWS V14.01,2013-09-09 21:44:00,
2013-09-09 16:49:00,77.3,71.7,29.63,South,171,7.0,7.0,83,0.00,,OVC,0.17,441.00,VWS V14.01,2013-09-09 21:49:00,
2013-09-09 16:54:00,77.8,71.5,29.63,WSW,247,5.0,7.0,81,0.00,,OVC,0.17,432.00,VWS V14.01,2013-09-09 21:54:00,
2013-09-09 16:59:00,78.0,71.7,29.62,SSW,208,1.0,7.0,81,0.00,,OVC,0.17,439.00,VWS V14.01,2013-09-09 21:59:00,
2013-09-09 17:04:00,78.0,71.7,29.62,WSW,255,2.0,5.0,81,0.00,,OVC,0.17,278.00,VWS V14.01,2013-09-09 22:04:00,
2013-09-09 17:09:00,77.9,72.0,29.62,WSW,254,3.0,4.0,82,0.00,,OVC,0.17,410.00,VWS V14.01,2013-09-09 22:09:00,
2013-09-09 17:14:00,77.7,71.8,29.62,WSW,253,5.0,7.0,82,0.00,,OVC,0.17,332.00,VWS V14.01,2013-09-09 22:14:00,
2013-09-09 17:19:00,77.6,71.7,29.62,WSW,252,11.0,11.0,82,0.00,,OVC,0.17,292.00,VWS V14.01,2013-09-09 22:19:00,
2013-09-09 17:24:00,77.9,71.6,29.62,West,264,4.0,9.0,81,0.00,,OVC,0.17,193.00,VWS V14.01,2013-09-09 22:24:00,
2013-09-09 17:29:00,77.7,71.4,29.62,West,259,6.0,8.0,81,0.00,,OVC,0.17,156.00,VWS V14.01,2013-09-09 22:29:00,
2013-09-09 17:34:00,77.5,71.6,29.62,West,272,4.0,6.0,82,0.00,,OVC,0.17,237.00,VWS V14.01,2013-09-09 22:34:00,
2013-09-09 17:39:00,77.4,71.5,29.62,WSW,246,5.0,5.0,82,0.00,,OVC,0.17,197.00,VWS V14.01,2013-09-09 22:39:00,
2013-09-09 17:44:00,77.1,71.5,29.62,WSW,243,3.0,7.0,83,0.00,,OVC,0.17,195.00,VWS V14.01,2013-09-09 22:44:00,
2013-09-09 17:49:00,76.6,71.8,29.62,West,261,6.0,6.0,85,0.00,,OVC,0.17,209.00,VWS V14.01,2013-09-09 22:49:00,
2013-09-09 17:54:00,76.9,71.7,29.62,WSW,254,3.0,4.0,84,0.00,,OVC,0.17,193.00,VWS V14.01,2013-09-09 22:54:00,
2013-09-09 17:59:00,76.8,71.9,29.62,West,263,4.0,8.0,85,0.00,,OVC,0.17,123.00,VWS V14.01,2013-09-09 22:59:00,
2013-09-09 18:04:00,77.2,72.0,29.63,WSW,240,3.0,7.0,84,0.00,,OVC,0.17,151.00,VWS V14.01,2013-09-09 23:04:00,
2013-09-09 18:09:00,77.1,71.9,29.63,West,266,4.0,6.0,84,0.00,,OVC,0.17,165.00,VWS V14.01,2013-09-09 23:09:00,
2013-09-09 18:14:00,77.1,71.9,29.63,West,259,3.0,6.0,84,0.00,,OVC,0.17,111.00,VWS V14.01,2013-09-09 23:14:00,
2013-09-09 18:20:00,77.0,72.2,29.63,West,264,2.0,6.0,85,0.00,,OVC,0.17,91.00,VWS V14.01,2013-09-09 23:20:00,
2013-09-09 18:25:00,76.8,72.3,29.64,West,265,0.0,2.0,86,0.00,,OVC,0.17,79.00,VWS V14.01,2013-09-09 23:25:00,
2013-09-09 18:30:00,76.4,71.9,29.64,West,264,0.0,2.0,86,0.00,,OVC,0.17,53.00,VWS V14.01,2013-09-09 23:30:00,
2013-09-09 18:35:00,75.6,71.8,29.64,West,264,0.0,0.0,88,0.00,,OVC,0.17,37.00,VWS V14.01,2013-09-09 23:35:00,
2013-09-09 18:40:00,75.0,71.5,29.64,West,265,0.0,0.0,89,0.00,,OVC,0.17,23.00,VWS V14.01,2013-09-09 23:40:00,
2013-09-09 18:45:00,74.7,71.6,29.64,West,265,0.0,0.0,90,0.00,,OVC,0.17,14.00,VWS V14.01,2013-09-09 23:45:00,
2013-09-09 18:50:00,74.6,71.5,29.64,West,265,0.0,0.0,90,0.00,,OVC,0.17,11.00,VWS V14.01,2013-09-09 23:50:00,
2013-09-09 18:55:00,74.3,71.5,29.64,West,265,0.0,0.0,91,0.00,,OVC,0.17,9.00,VWS V14.01,2013-09-09 23:55:00,
2013-09-09 19:00:00,74.1,71.3,29.65,West,265,0.0,0.0,91,0.00,,OVC,0.17,7.00,VWS V14.01,2013-09-10 00:00:00,
2013-09-09 19:05:00,73.8,71.3,29.65,West,265,0.0,0.0,92,0.00,,OVC,0.17,5.00,VWS V14.01,2013-09-10 00:05:00,
2013-09-09 19:10:00,73.6,71.1,29.65,West,265,0.0,0.0,92,0.00,,OVC,0.17,5.00,VWS V14.01,2013-09-10 00:10:00,
2013-09-09 19:15:00,73.4,70.9,29.65,West,265,0.0,0.0,92,0.00,,OVC,0.17,5.00,VWS V14.01,2013-09-10 00:15:00,
2013-09-09 19:20:00,73.3,71.2,29.64,West,265,0.0,0.0,93,0.00,,OVC,0.17,0.00,VWS V14.01,2013-09-10 00:20:00,
2013-09-09 19:25:00,73.2,71.1,29.64,West,265,0.0,0.0,93,0.00,,OVC,0.17,0.00,VWS V14.01,2013-09-10 00:25:00,
2013-09-09 19:30:00,73.1,71.0,29.65,West,265,0.0,2.0,93,0.00,,OVC,0.17,0.00,VWS V14.01,2013-09-10 00:30:00,
2013-09-09 19:35:00,73.0,70.9,29.64,West,266,0.0,0.0,93,0.00,,OVC,0.17,0.00,VWS V14.01,2013-09-10 00:35:00,
2013-09-09 19:40:00,72.8,70.7,29.65,West,265,0.0,0.0,93,0.00,,OVC,0.17,0.00,VWS V14.01,2013-09-10 00:40:00,
2013-09-09 19:45:00,72.7,70.6,29.65,West,265,0.0,0.0,93,0.00,,OVC,0.17,0.00,VWS V14.01,2013-09-10 00:45:00,
2013-09-09 19:50:00,72.6,70.5,29.65,West,266,0.0,0.0,93,0.00,,OVC,0.17,0.00,VWS V14.01,2013-09-10 00:50:00,
2013-09-09 19:55:00,72.5,70.4,29.65,West,265,0.0,0.0,93,0.00,,OVC,0.17,0.00,VWS V14.01,2013-09-10 00:55:00,
2013-09-09 20:00:00,72.3,70.5,29.65,West,279,0.0,1.0,94,0.00,,OVC,0.17,0.00,VWS V14.01,2013-09-10 01:00:00,
2013-09-09 20:05:00,72.2,70.4,29.65,ENE,62,0.0,4.0,94,0.00,,OVC,0.17,0.00,VWS V14.01,2013-09-10 01:05:00,
2013-09-09 20:10:00,72.2,70.4,29.65,ENE,62,0.0,0.0,94,0.00,,OVC,0.17,0.00,VWS V14.01,2013-09-10 01:10:00,
2013-09-09 20:15:00,72.1,70.3,29.66,North,351,0.0,1.0,94,0.00,,OVC,0.17,0.00,VWS V14.01,2013-09-10 01:15:00,
2013-09-09 20:20:00,72.1,70.3,29.66,North,351,0.0,0.0,94,0.00,,OVC,0.17,0.00,VWS V14.01,2013-09-10 01:20:00,
2013-09-09 20:25:00,71.9,70.1,29.66,North,351,0.0,0.0,94,0.00,,OVC,0.17,0.00,VWS V14.01,2013-09-10 01:25:00,
2013-09-09 20:30:00,71.8,70.0,29.66,North,351,0.0,1.0,94,0.00,,OVC,0.17,0.00,VWS V14.01,2013-09-10 01:30:00,
2013-09-09 20:35:00,71.7,69.9,29.66,North,355,0.0,0.0,94,0.00,,OVC,0.17,0.00,VWS V14.01,2013-09-10 01:35:00,
2013-09-09 20:40:00,71.4,69.3,29.66,North,355,0.0,0.0,93,0.00,,OVC,0.17,0.00,VWS V14.01,2013-09-10 01:40:00,
2013-09-09 20:45:00,71.3,69.2,29.66,North,355,0.0,0.0,93,0.00,,OVC,0.17,0.00,VWS V14.01,2013-09-10 01:45:00,
2013-09-09 20:50:00,71.1,69.0,29.66,North,355,0.0,0.0,93,0.00,,OVC,0.17,0.00,VWS V14.01,2013-09-10 01:50:00,
2013-09-09 20:55:00,71.0,69.2,29.66,North,351,0.0,0.0,94,0.00,,OVC,0.17,0.00,VWS V14.01,2013-09-10 01:55:00,
2013-09-09 21:01:00,70.9,69.1,29.66,North,355,0.0,0.0,94,0.00,,OVC,0.17,0.00,VWS V14.01,2013-09-10 02:01:00,
2013-09-09 21:06:00,70.8,69.0,29.66,North,355,0.0,0.0,94,0.00,,OVC,0.17,0.00,VWS V14.01,2013-09-10 02:06:00,
2013-09-09 21:11:00,70.7,68.9,29.67,North,355,0.0,0.0,94,0.00,,OVC,0.17,0.00,VWS V14.01,2013-09-10 02:11:00,
2013-09-09 21:16:00,70.5,68.7,29.66,North,355,0.0,0.0,94,0.00,,OVC,0.17,0.00,VWS V14.01,2013-09-10 02:16:00,
2013-09-09 21:21:00,70.5,68.7,29.67,North,355,0.0,0.0,94,0.00,,OVC,0.17,0.00,VWS V14.01,2013-09-10 02:21:00,
2013-09-09 21:26:00,70.3,68.5,29.66,North,355,0.0,0.0,94,0.00,,OVC,0.17,0.00,VWS V14.01,2013-09-10 02:26:00,
2013-09-09 21:31:00,70.3,68.5,29.66,North,355,0.0,0.0,94,0.00,,OVC,0.17,0.00,VWS V14.01,2013-09-10 02:31:00,
2013-09-09 21:36:00,70.2,68.4,29.66,North,355,0.0,0.0,94,0.00,,OVC,0.17,0.00,VWS V14.01,2013-09-10 02:36:00,
2013-09-09 21:41:00,70.1,68.3,29.67,North,355,0.0,0.0,94,0.00,,OVC,0.17,0.00,VWS V14.01,2013-09-10 02:41:00,
2013-09-09 21:46:00,70.0,68.2,29.66,North,355,0.0,0.0,94,0.00,,OVC,0.17,0.00,VWS V14.01,2013-09-10 02:46:00,
2013-09-09 21:51:00,69.9,68.1,29.66,North,355,0.0,0.0,94,0.00,,OVC,0.17,0.00,VWS V14.01,2013-09-10 02:51:00,
2013-09-09 21:56:00,69.8,68.0,29.67,North,355,0.0,0.0,94,0.00,,OVC,0.17,0.00,VWS V14.01,2013-09-10 02:56:00,
2013-09-09 22:01:00,69.7,67.9,29.67,North,355,0.0,0.0,94,0.00,,OVC,0.17,0.00,VWS V14.01,2013-09-10 03:01:00,
2013-09-09 22:06:00,69.6,67.8,29.67,North,355,0.0,0.0,94,0.00,,OVC,0.17,0.00,VWS V14.01,2013-09-10 03:06:00,
2013-09-09 22:11:00,69.7,67.9,29.67,North,355,0.0,0.0,94,0.00,,OVC,0.17,0.00,VWS V14.01,2013-09-10 03:11:00,
2013-09-09 22:16:00,69.7,67.9,29.67,North,355,0.0,0.0,94,0.00,,OVC,0.17,0.00,VWS V14.01,2013-09-10 03:16:00,
2013-09-09 22:21:00,69.6,67.8,29.67,North,355,0.0,0.0,94,0.00,,OVC,0.17,0.00,VWS V14.01,2013-09-10 03:21:00,
2013-09-09 22:26:00,69.5,67.7,29.67,North,355,0.0,0.0,94,0.00,,OVC,0.17,0.00,VWS V14.01,2013-09-10 03:26:00,
2013-09-09 22:31:00,69.5,67.7,29.67,North,355,0.0,0.0,94,0.00,,OVC,0.17,0.00,VWS V14.01,2013-09-10 03:31:00,
2013-09-09 22:36:00,69.4,67.6,29.67,North,355,0.0,0.0,94,0.00,,OVC,0.17,0.00,VWS V14.01,2013-09-10 03:36:00,
2013-09-09 22:41:00,69.7,68.2,29.67,North,355,0.0,0.0,95,0.00,,OVC,0.17,0.00,VWS V14.01,2013-09-10 03:41:00,
2013-09-09 22:46:00,69.8,68.3,29.67,North,355,0.0,0.0,95,0.00,,OVC,0.17,0.00,VWS V14.01,2013-09-10 03:46:00,
2013-09-09 22:51:00,69.8,68.3,29.67,North,355,0.0,0.0,95,0.00,,OVC,0.17,0.00,VWS V14.01,2013-09-10 03:51:00,
2013-09-09 22:57:00,69.7,68.2,29.67,North,355,0.0,0.0,95,0.00,,OVC,0.17,0.00,VWS V14.01,2013-09-10 03:57:00,
2013-09-09 23:01:00,69.7,68.2,29.67,North,355,0.0,0.0,95,0.00,,OVC,0.17,0.00,VWS V14.01,2013-09-10 04:01:00,
2013-09-09 23:02:00,69.8,68.3,29.67,North,355,0.0,0.0,95,0.00,,OVC,0.17,0.00,VWS V14.01,2013-09-10 04:02:00,
2013-09-09 23:03:00,69.7,68.2,29.67,North,355,0.0,0.0,95,0.00,,OVC,0.17,0.00,VWS V14.01,2013-09-10 04:03:00,
2013-09-09 23:05:00,69.7,68.2,29.67,North,355,0.0,0.0,95,0.00,,OVC,0.17,0.00,VWS V14.01,2013-09-10 04:05:00,
2013-09-09 23:10:00,69.6,68.1,29.67,North,355,0.0,0.0,95,0.00,,OVC,0.17,0.00,VWS V14.01,2013-09-10 04:10:00,
2013-09-09 23:15:00,69.5,68.0,29.67,North,355,0.0,0.0,95,0.00,,OVC,0.17,0.00,VWS V14.01,2013-09-10 04:15:00,
2013-09-09 23:20:00,69.4,67.9,29.67,North,355,0.0,0.0,95,0.00,,OVC,0.17,0.00,VWS V14.01,2013-09-10 04:20:00,
2013-09-09 23:25:00,69.3,67.5,29.67,North,355,0.0,0.0,94,0.00,,OVC,0.17,0.00,VWS V14.01,2013-09-10 04:25:00,
2013-09-09 23:30:00,69.2,67.4,29.67,North,355,0.0,0.0,94,0.00,,OVC,0.17,0.00,VWS V14.01,2013-09-10 04:30:00,
2013-09-09 23:35:00,69.2,67.7,29.67,North,355,0.0,0.0,95,0.00,,OVC,0.17,0.00,VWS V14.01,2013-09-10 04:35:00,
2013-09-09 23:40:00,69.2,67.7,29.67,North,355,0.0,0.0,95,0.00,,OVC,0.17,0.00,VWS V14.01,2013-09-10 04:40:00,
2013-09-09 23:45:00,69.4,67.9,29.67,North,355,0.0,0.0,95,0.00,,OVC,0.17,0.00,VWS V14.01,2013-09-10 04:45:00,
2013-09-09 23:50:00,69.0,67.5,29.67,North,355,0.0,0.0,95,0.00,,OVC,0.17,0.00,VWS V14.01,2013-09-10 04:50:00,
2013-09-09 23:55:00,68.9,67.4,29.67,North,355,0.0,0.0,95,0.00,,OVC,0.17,0.00,VWS V14.01,2013-09-10 04:55:00,